createdAt,value
2023-03-15T20:45:45.758Z,2.14
2023-03-15T20:48:14.046Z,2.39
2023-03-15T20:50:56.077Z,3.03
2023-03-15T20:53:52.218Z,2.92
2023-03-15T20:56:53.620Z,3.31
2023-03-15T21:00:04.499Z,3.62
2023-03-15T21:07:34.970Z,3.46
2023-03-15T21:25:54.104Z,3.08
2023-03-15T22:36:03.356Z,1.95
2023-03-15T22:38:37.663Z,1.82
2023-03-15T22:41:08.643Z,1.81
2023-03-15T22:43:38.795Z,1.73
2023-03-15T22:46:07.602Z,1.86
2023-03-15T22:51:16.804Z,1.54
2023-03-15T22:53:44.756Z,1.38
2023-03-15T22:56:12.700Z,1.15
2023-03-15T22:58:40.693Z,1.21
2023-03-15T23:01:09.713Z,0.76
2023-03-15T23:03:37.497Z,1.25
2023-03-15T23:06:05.429Z,1.15
2023-03-15T23:08:33.642Z,1.43
2023-03-15T23:11:01.488Z,1.67
2023-03-15T23:13:29.164Z,1.62
2023-03-15T23:15:57.094Z,1.71
2023-03-15T23:18:24.967Z,1.65
2023-03-15T23:20:52.635Z,1.83
2023-03-15T23:23:20.385Z,1.79
2023-03-15T23:25:50.450Z,1.81
2023-03-15T23:28:20.853Z,1.80
2023-03-15T23:30:48.595Z,1.79
2023-03-15T23:33:16.261Z,1.70
2023-03-15T23:35:44.307Z,1.70
2023-03-15T23:38:13.654Z,1.46
2023-03-15T23:40:41.385Z,1.29
2023-03-15T23:43:09.381Z,1.42
2023-03-15T23:45:37.118Z,0.72
2023-03-15T23:48:05.829Z,1.16
2023-03-15T23:50:33.504Z,1.24
2023-03-15T23:53:01.080Z,1.14
2023-03-15T23:55:28.822Z,1.17
2023-03-15T23:57:56.780Z,1.35
